createdAt,value
2023-09-17T00:01:37.388Z,10.30
2023-09-17T00:07:00.601Z,8.60
2023-09-17T00:12:24.539Z,7.32
2023-09-17T00:17:47.412Z,9.02
2023-09-17T00:23:10.489Z,10.20
2023-09-17T00:28:34.624Z,8.48
2023-09-17T00:33:57.164Z,9.20
2023-09-17T00:39:20.132Z,8.82
2023-09-17T00:44:43.599Z,6.72
2023-09-17T00:50:07.923Z,10.00
2023-09-17T00:55:31.718Z,6.65
2023-09-17T01:00:55.880Z,7.28
2023-09-17T01:06:18.394Z,9.10
2023-09-17T01:11:40.794Z,8.20
2023-09-17T01:17:05.763Z,8.80
2023-09-17T01:22:32.405Z,9.25
2023-09-17T01:27:56.931Z,7.45
2023-09-17T01:33:19.491Z,8.50
2023-09-17T01:38:47.443Z,10.60
2023-09-17T01:44:12.211Z,7.90
2023-09-17T01:49:36.400Z,13.88
2023-09-17T01:55:04.910Z,15.27
2023-09-17T02:00:29.628Z,10.57
2023-09-17T02:05:52.740Z,9.00
2023-09-17T02:11:15.342Z,7.03
2023-09-17T02:16:39.370Z,7.65
2023-09-17T02:22:01.890Z,14.15
2023-09-17T02:27:24.227Z,9.65
2023-09-17T02:32:48.031Z,6.55
2023-09-17T02:38:10.555Z,16.90
2023-09-17T02:43:32.862Z,10.68
2023-09-17T02:48:56.711Z,8.93
2023-09-17T02:54:19.004Z,13.88
2023-09-17T02:59:42.444Z,8.20
2023-09-17T03:05:06.905Z,9.55
2023-09-17T03:10:29.620Z,10.55
2023-09-17T03:15:57.067Z,14.82
2023-09-17T03:21:20.825Z,14.43
2023-09-17T03:26:43.650Z,8.52
2023-09-17T03:32:06.770Z,11.32
2023-09-17T03:37:30.584Z,12.73
2023-09-17T03:42:53.868Z,11.80
2023-09-17T03:48:19.045Z,20.10
2023-09-17T03:53:44.563Z,18.55
2023-09-17T03:59:07.771Z,15.52
2023-09-17T04:04:30.784Z,15.98
2023-09-17T04:09:54.950Z,26.13
2023-09-17T04:15:20.345Z,12.57
2023-09-17T04:20:43.261Z,16.63
2023-09-17T04:26:07.305Z,30.65
2023-09-17T04:31:30.075Z,14.35
2023-09-17T04:36:52.809Z,24.45
2023-09-17T04:42:18.406Z,24.92
2023-09-17T04:47:41.989Z,15.70
2023-09-17T04:53:04.854Z,31.35
2023-09-17T04:58:28.882Z,13.32
2023-09-17T05:03:51.610Z,12.48
2023-09-17T05:09:14.379Z,25.70
2023-09-17T05:14:38.466Z,30.25
2023-09-17T05:20:00.967Z,18.50
2023-09-17T05:25:23.531Z,16.30
2023-09-17T05:30:48.167Z,14.68
2023-09-17T05:36:10.428Z,14.20
2023-09-17T05:41:32.942Z,29.60
2023-09-17T05:46:57.300Z,21.98
2023-09-17T05:52:20.040Z,14.75
2023-09-17T05:57:44.000Z,20.02
2023-09-17T06:03:08.174Z,19.08
2023-09-17T06:08:30.970Z,25.38
2023-09-17T06:13:54.750Z,18.88
2023-09-17T06:19:19.094Z,13.88
2023-09-17T06:24:41.467Z,19.23
2023-09-17T06:30:04.185Z,14.45
2023-09-17T06:35:28.940Z,16.27
2023-09-17T06:40:51.185Z,19.58
2023-09-17T06:46:13.973Z,19.73
2023-09-17T06:51:38.493Z,19.33
2023-09-17T06:57:03.015Z,16.73
2023-09-17T07:02:25.568Z,22.85
2023-09-17T07:07:49.854Z,17.80
2023-09-17T07:13:12.756Z,21.58
2023-09-17T07:18:35.687Z,23.55
2023-09-17T07:24:00.219Z,13.32
2023-09-17T07:29:23.152Z,12.95
2023-09-17T07:34:45.908Z,19.92
2023-09-17T07:40:11.039Z,16.38
2023-09-17T07:45:35.142Z,10.95
2023-09-17T07:50:58.705Z,7.18
2023-09-17T07:56:25.156Z,11.32
2023-09-17T08:01:48.742Z,10.40
2023-09-17T08:07:12.818Z,15.88
2023-09-17T08:12:36.468Z,12.18
2023-09-17T08:17:58.934Z,15.55
2023-09-17T08:23:21.600Z,12.35
2023-09-17T08:28:46.962Z,12.93
2023-09-17T08:34:09.483Z,4.53
2023-09-17T08:39:32.696Z,8.05
2023-09-17T08:44:56.967Z,17.60
2023-09-17T08:50:19.533Z,12.82
2023-09-17T08:55:42.112Z,20.08
2023-09-17T09:01:08.127Z,6.03
2023-09-17T09:06:31.469Z,5.50
2023-09-17T09:11:54.944Z,8.00
2023-09-17T09:17:19.508Z,22.48
2023-09-17T09:22:44.761Z,9.80
2023-09-17T09:28:07.541Z,5.05
2023-09-17T09:33:33.154Z,6.25
2023-09-17T09:38:56.820Z,10.02
2023-09-17T09:44:19.004Z,6.82
2023-09-17T09:49:45.573Z,4.90
2023-09-17T09:55:08.436Z,18.38
2023-09-17T10:00:31.053Z,9.15
2023-09-17T10:05:55.535Z,10.77
2023-09-17T10:11:20.160Z,7.00
2023-09-17T10:16:42.849Z,3.70
2023-09-17T10:22:09.287Z,4.55
2023-09-17T10:27:32.999Z,10.00
2023-09-17T10:32:56.264Z,4.45
2023-09-17T10:38:20.563Z,3.97
2023-09-17T10:43:46.707Z,4.75
2023-09-17T10:49:09.666Z,6.13
2023-09-17T10:54:33.902Z,4.63
2023-09-17T10:59:57.326Z,3.22
2023-09-17T11:05:21.473Z,4.47
2023-09-17T11:10:45.367Z,5.97
2023-09-17T11:16:08.731Z,3.25
2023-09-17T11:21:31.041Z,6.90
2023-09-17T11:26:58.258Z,14.13
2023-09-17T11:32:26.221Z,3.47
2023-09-17T11:37:50.736Z,7.80
2023-09-17T11:43:15.470Z,9.57
2023-09-17T11:48:38.594Z,3.35
2023-09-17T11:54:02.264Z,8.13
2023-09-17T12:04:56.244Z,10.00
2023-09-17T12:10:21.014Z,7.30
2023-09-17T12:15:45.004Z,3.70
2023-09-17T12:21:10.365Z,6.70
2023-09-17T12:26:37.721Z,5.30
2023-09-17T12:32:01.576Z,2.83
2023-09-17T12:37:23.981Z,7.15
2023-09-17T12:42:47.389Z,18.00
2023-09-17T12:48:11.425Z,12.25
2023-09-17T12:53:34.790Z,8.20
2023-09-17T12:58:58.910Z,11.95
2023-09-17T13:04:33.138Z,7.80
2023-09-17T13:09:56.242Z,4.70
2023-09-17T13:15:18.833Z,7.22
2023-09-17T13:20:42.739Z,11.45
2023-09-17T13:26:05.395Z,5.03
2023-09-17T13:31:28.603Z,3.13
2023-09-17T13:36:52.928Z,8.18
2023-09-17T13:42:15.677Z,12.80
2023-09-17T13:47:43.128Z,12.13
2023-09-17T13:53:12.925Z,7.15
2023-09-17T13:58:42.072Z,3.85
2023-09-17T14:04:11.274Z,4.25
2023-09-17T14:09:34.953Z,4.20
2023-09-17T14:14:57.571Z,10.15
2023-09-17T14:20:22.105Z,5.70
2023-09-17T14:25:45.949Z,11.93
2023-09-17T14:31:08.338Z,7.05
2023-09-17T14:36:31.054Z,9.25
2023-09-17T14:41:55.573Z,3.42
2023-09-17T14:47:18.492Z,7.03
2023-09-17T14:52:41.293Z,10.65
2023-09-17T14:58:05.707Z,10.60
2023-09-17T15:03:30.150Z,14.00
2023-09-17T15:08:53.466Z,17.63
2023-09-17T15:14:17.484Z,11.18
2023-09-17T15:19:40.308Z,12.90
2023-09-17T15:25:03.721Z,5.75
2023-09-17T15:30:27.901Z,6.15
2023-09-17T15:35:50.680Z,6.53
2023-09-17T15:41:13.074Z,15.15
2023-09-17T15:46:37.379Z,5.85
2023-09-17T15:52:01.266Z,14.00
2023-09-17T15:57:24.414Z,13.63
2023-09-17T16:02:48.731Z,25.00
2023-09-17T16:08:11.587Z,13.30
2023-09-17T16:13:34.300Z,28.58
2023-09-17T16:18:57.998Z,41.00
2023-09-17T16:24:20.595Z,21.40
2023-09-17T16:29:43.248Z,29.98
2023-09-17T16:35:08.329Z,24.83
2023-09-17T16:40:31.132Z,22.05
2023-09-17T16:45:53.681Z,23.48
2023-09-17T16:51:19.993Z,18.52
2023-09-17T16:56:43.140Z,29.55
2023-09-17T17:02:07.287Z,33.15
2023-09-17T17:07:31.846Z,22.95
2023-09-17T17:12:54.637Z,26.23
2023-09-17T17:18:16.890Z,34.03
2023-09-17T17:23:40.876Z,27.67
2023-09-17T17:29:04.498Z,20.17
2023-09-17T17:34:26.959Z,31.55
2023-09-17T17:39:50.720Z,26.25
2023-09-17T17:45:13.266Z,17.42
2023-09-17T17:50:35.899Z,20.77
2023-09-17T17:55:59.571Z,29.13
2023-09-17T18:01:22.636Z,26.67
2023-09-17T18:06:45.137Z,18.80
2023-09-17T18:12:09.006Z,21.48
2023-09-17T18:17:32.166Z,24.00
2023-09-17T18:22:56.386Z,22.33
2023-09-17T18:28:20.886Z,12.82
2023-09-17T18:33:43.742Z,16.65
2023-09-17T18:39:06.839Z,25.45
2023-09-17T18:44:31.030Z,17.13
2023-09-17T18:49:54.234Z,22.48
2023-09-17T18:55:16.885Z,16.48
2023-09-17T19:00:41.758Z,17.00
2023-09-17T19:06:04.711Z,16.55
2023-09-17T19:11:27.540Z,20.38
2023-09-17T19:16:51.361Z,24.98
2023-09-17T19:22:13.834Z,26.15
2023-09-17T19:27:36.440Z,29.38
2023-09-17T19:33:00.188Z,21.02
2023-09-17T19:38:22.942Z,19.55
2023-09-17T19:43:45.861Z,37.97
2023-09-17T19:49:09.698Z,20.23
2023-09-17T19:54:32.190Z,23.33
2023-09-17T19:59:54.819Z,20.92
2023-09-17T20:05:19.043Z,16.65
2023-09-17T20:10:41.986Z,21.65
2023-09-17T20:16:04.456Z,17.45
2023-09-17T20:21:30.783Z,26.80
2023-09-17T20:26:53.859Z,18.50
2023-09-17T20:32:16.466Z,26.50
2023-09-17T20:37:40.316Z,22.25
2023-09-17T20:43:02.901Z,16.55
2023-09-17T20:48:26.744Z,22.75
2023-09-17T20:53:51.136Z,17.70
2023-09-17T20:59:15.274Z,15.07
2023-09-17T21:04:38.564Z,15.07
2023-09-17T21:10:02.660Z,20.13
2023-09-17T21:15:25.399Z,23.02
2023-09-17T21:20:47.897Z,27.65
2023-09-17T21:26:11.882Z,27.60
2023-09-17T21:31:34.759Z,21.45
2023-09-17T21:36:57.302Z,19.67
2023-09-17T21:42:21.002Z,19.58
2023-09-17T21:47:43.452Z,22.48
2023-09-17T21:53:05.970Z,24.55
2023-09-17T21:58:29.763Z,25.52
2023-09-17T22:03:52.728Z,23.73
2023-09-17T22:09:15.208Z,24.83
2023-09-17T22:14:39.634Z,28.73
2023-09-17T22:20:02.048Z,21.15
2023-09-17T22:25:25.231Z,27.05
2023-09-17T22:30:49.186Z,22.55
2023-09-17T22:36:11.799Z,20.55
2023-09-17T22:41:34.237Z,27.85
2023-09-17T22:46:58.478Z,22.30
2023-09-17T22:52:20.992Z,19.13
2023-09-17T22:57:43.418Z,25.25
2023-09-17T23:03:07.394Z,21.30
2023-09-17T23:08:30.700Z,21.92
2023-09-17T23:13:53.047Z,26.23
2023-09-17T23:19:17.207Z,19.42
2023-09-17T23:24:39.785Z,24.48
2023-09-17T23:30:02.582Z,17.88
2023-09-17T23:35:29.606Z,17.52
2023-09-17T23:40:52.173Z,22.55
2023-09-17T23:46:14.998Z,24.55
2023-09-17T23:51:39.170Z,17.58
2023-09-17T23:57:01.905Z,26.70
